Time;durP1;ratioP1;P1;durP2;ratioP2;P2;SDS_P1;SDS_P2;PMS_P1;PMS_P2;Temp;Humidity;BMP_temperature;BMP_pressure;BME280_temperature;BME280_humidity;BME280_pressure;Samples;Min_cycle;Max_cycle;Signal;HPM_P1;HPM_P2
2022/08/31 00:03:55;;;;;;;8.40;3.90;;;;;19.06;97536.60;;;;110684;1250;41139;-66
2022/08/31 00:06:25;;;;;;;7.80;3.20;;;;;19.00;97537.40;;;;110683;1250;42422;-66
2022/08/31 00:08:56;;;;;;;7.30;3.10;;;;;19.00;97536.40;;;;110654;1250;41355;-66
2022/08/31 00:11:28;;;;;;;8.30;3.30;;;;;19.00;97534.20;;;;110767;1250;41629;-67
2022/08/31 00:14:02;;;;;;;7.80;3.30;;;;;19.00;97535.60;;;;110911;1250;41558;-65
2022/08/31 00:16:34;;;;;;;7.30;2.80;;;;;19.00;97531.00;;;;110876;1250;41146;-67
2022/08/31 00:19:05;;;;;;;6.90;2.80;;;;;19.00;97526.80;;;;110838;1250;41615;-66
2022/08/31 00:21:34;;;;;;;7.20;2.80;;;;;19.00;97520.00;;;;110714;1249;41198;-67
2022/08/31 00:24:04;;;;;;;7.40;3.10;;;;;19.00;97517.60;;;;110705;1249;41150;-68
2022/08/31 00:26:35;;;;;;;7.40;3.20;;;;;19.00;97514.20;;;;110929;1249;41146;-68
2022/08/31 00:29:12;;;;;;;7.40;3.00;;;;;19.00;97510.60;;;;110750;1249;41127;-67
2022/08/31 00:31:47;;;;;;;8.00;3.20;;;;;19.00;97516.20;;;;110687;1250;41725;-67
2022/08/31 00:34:16;;;;;;;10.20;3.40;;;;;19.00;97509.60;;;;110851;1250;41622;-66
2022/08/31 00:36:47;;;;;;;7.40;3.10;;;;;19.00;97514.00;;;;110696;1251;42388;-67
2022/08/31 00:39:17;;;;;;;8.30;3.10;;;;;19.00;97514.00;;;;110929;1249;41186;-67
2022/08/31 00:41:47;;;;;;;6.90;3.30;;;;;19.00;97513.00;;;;110976;1250;41375;-67
2022/08/31 00:44:17;;;;;;;7.20;3.20;;;;;19.00;97518.80;;;;110840;1249;41132;-67
2022/08/31 00:46:47;;;;;;;7.70;3.10;;;;;19.00;97515.60;;;;110826;1250;41605;-67
2022/08/31 00:49:23;;;;;;;7.70;3.20;;;;;19.00;97518.00;;;;110707;1251;41912;-67
2022/08/31 00:52:31;;;;;;;6.30;2.90;;;;;19.00;97516.00;;;;110589;1251;41172;-67
2022/08/31 00:55:08;;;;;;;7.30;3.00;;;;;19.00;97520.00;;;;110587;1251;41267;-67
2022/08/31 00:57:41;;;;;;;9.20;3.00;;;;;18.96;97512.00;;;;110757;1250;41160;-68
2022/08/31 01:00:15;;;;;;;7.60;2.80;;;;;18.90;97511.20;;;;110680;1251;41272;-68
2022/08/31 01:02:47;;;;;;;7.30;3.20;;;;;18.92;97514.60;;;;110686;1251;41345;-67
2022/08/31 01:05:18;;;;;;;8.10;3.10;;;;;18.90;97511.60;;;;110983;1249;41645;-67
2022/08/31 01:07:50;;;;;;;7.30;2.90;;;;;18.90;97513.60;;;;110821;1249;41262;-67
2022/08/31 01:10:22;;;;;;;7.00;3.30;;;;;18.90;97516.60;;;;110661;1251;41181;-67
2022/08/31 01:12:53;;;;;;;6.90;3.10;;;;;18.90;97517.00;;;;110629;1252;41148;-67
2022/08/31 01:15:26;;;;;;;8.60;3.30;;;;;18.90;97518.40;;;;110588;1251;41655;-67
2022/08/31 01:18:01;;;;;;;6.80;2.80;;;;;18.90;97512.40;;;;110592;1251;42416;-67
2022/08/31 01:20:45;;;;;;;9.40;3.30;;;;;18.90;97516.20;;;;110650;1251;41148;-67
2022/08/31 01:23:23;;;;;;;7.90;3.00;;;;;18.90;97519.60;;;;110619;1250;41623;-68
2022/08/31 01:25:55;;;;;;;7.80;3.00;;;;;18.84;97512.00;;;;110589;1252;41164;-66
2022/08/31 01:28:30;;;;;;;9.80;3.80;;;;;18.80;97510.20;;;;110784;1249;41251;-67
2022/08/31 01:31:13;;;;;;;;;;;;;18.80;97514.80;;;;110658;1251;41169;-67
2022/08/31 01:33:46;;;;;;;8.40;3.10;;;;;18.80;97515.40;;;;110727;1249;41261;-67
2022/08/31 01:36:17;;;;;;;7.60;3.50;;;;;18.80;97516.80;;;;110613;1251;41299;-67
2022/08/31 01:38:48;;;;;;;9.10;4.00;;;;;18.80;97514.40;;;;110511;1252;41273;-67
2022/08/31 01:41:22;;;;;;;6.60;3.30;;;;;18.80;97513.20;;;;110560;1253;41719;-67
2022/08/31 01:43:53;;;;;;;;;;;;;18.80;97513.60;;;;110634;1250;41183;-67
2022/08/31 01:46:24;;;;;;;7.40;3.00;;;;;18.80;97513.20;;;;110605;1249;41715;-67
2022/08/31 01:48:55;;;;;;;7.90;3.40;;;;;18.80;97504.60;;;;110690;1251;41263;-67
2022/08/31 01:51:25;;;;;;;8.20;3.80;;;;;18.78;97503.80;;;;110560;1252;41264;-67
2022/08/31 01:53:57;;;;;;;6.70;2.90;;;;;18.80;97501.60;;;;110557;1252;41620;-67
2022/08/31 01:56:29;;;;;;;;;;;;;18.80;97499.60;;;;110582;1253;41260;-67
2022/08/31 01:59:05;;;;;;;7.70;3.20;;;;;18.70;97500.60;;;;110598;1252;41257;-68
2022/08/31 02:01:55;;;;;;;7.00;2.90;;;;;18.72;97498.20;;;;110598;1251;41952;-66
2022/08/31 02:04:26;;;;;;;7.80;3.20;;;;;18.70;97499.00;;;;110637;1252;41617;-66
2022/08/31 02:06:59;;;;;;;9.00;3.40;;;;;18.72;97495.00;;;;110545;1252;41774;-65
2022/08/31 02:09:29;;;;;;;8.20;2.80;;;;;18.70;97494.60;;;;110544;1252;41162;-65
2022/08/31 02:11:59;;;;;;;7.00;2.90;;;;;18.70;97493.80;;;;110659;1249;42442;-65
2022/08/31 02:14:29;;;;;;;6.40;2.90;;;;;18.70;97492.40;;;;110627;1249;41336;-65
2022/08/31 02:17:00;;;;;;;8.90;3.20;;;;;18.70;97494.60;;;;110551;1252;41322;-66
2022/08/31 02:19:31;;;;;;;8.50;3.20;;;;;18.70;97492.40;;;;110569;1251;41125;-66
2022/08/31 02:22:03;;;;;;;6.60;2.70;;;;;18.70;97487.40;;;;110599;1252;41271;-66
2022/08/31 02:24:34;;;;;;;8.50;3.10;;;;;18.72;97490.00;;;;110750;1250;42510;-66
2022/08/31 02:27:04;;;;;;;;;;;;;18.72;97486.20;;;;110698;1250;41143;-66
2022/08/31 02:29:35;;;;;;;6.70;2.80;;;;;18.70;97488.20;;;;110654;1252;41267;-67
2022/08/31 02:32:05;;;;;;;7.30;3.30;;;;;18.70;97487.00;;;;110815;1250;41479;-68
2022/08/31 02:34:39;;;;;;;8.30;3.80;;;;;18.70;97484.60;;;;110778;1251;41251;-67
2022/08/31 02:37:10;;;;;;;8.60;3.80;;;;;18.70;97488.40;;;;110761;1250;41271;-67
2022/08/31 02:39:41;;;;;;;9.00;4.40;;;;;18.60;97485.00;;;;110650;1250;41839;-67
2022/08/31 02:42:11;;;;;;;10.40;5.50;;;;;18.60;97488.80;;;;110786;1251;41682;-67
2022/08/31 02:44:41;;;;;;;10.90;5.20;;;;;18.60;97490.80;;;;110754;1249;41158;-67
2022/08/31 02:47:10;;;;;;;8.00;3.60;;;;;18.60;97492.40;;;;110768;1249;41475;-66
2022/08/31 02:49:46;;;;;;;7.20;3.20;;;;;18.60;97489.60;;;;110840;1250;41158;-67
2022/08/31 02:52:16;;;;;;;9.50;4.20;;;;;18.60;97487.60;;;;110607;1252;41133;-66
2022/08/31 02:54:47;;;;;;;8.80;4.20;;;;;18.50;97488.60;;;;110707;1251;41413;-66
2022/08/31 02:57:19;;;;;;;8.20;3.60;;;;;18.50;97484.60;;;;110664;1251;41265;-67
2022/08/31 02:59:51;;;;;;;8.10;3.30;;;;;18.40;97485.60;;;;110806;1249;42212;-67
2022/08/31 03:02:22;;;;;;;8.10;3.60;;;;;18.40;97484.00;;;;110757;1252;41159;-67
2022/08/31 03:04:51;;;;;;;8.70;3.50;;;;;18.46;97488.40;;;;110777;1249;42419;-66
2022/08/31 03:07:22;;;;;;;;;;;;;18.48;97488.20;;;;110704;1252;41156;-66
2022/08/31 03:09:54;;;;;;;6.90;2.70;;;;;18.42;97492.20;;;;110602;1251;41156;-66
2022/08/31 03:12:25;;;;;;;6.60;2.80;;;;;18.46;97483.40;;;;110690;1250;41156;-66
2022/08/31 03:14:57;;;;;;;7.20;3.40;;;;;18.50;97481.80;;;;110622;1251;41204;-67
2022/08/31 03:17:27;;;;;;;7.10;3.00;;;;;18.50;97482.60;;;;110596;1253;42330;-66
2022/08/31 03:19:59;;;;;;;6.70;3.00;;;;;18.50;97480.60;;;;110725;1250;41609;-66
2022/08/31 03:22:31;;;;;;;7.50;3.00;;;;;18.50;97476.20;;;;110760;1249;41175;-66
2022/08/31 03:25:01;;;;;;;7.20;3.00;;;;;18.50;97480.20;;;;110611;1252;41272;-66
2022/08/31 03:27:30;;;;;;;7.40;2.80;;;;;18.50;97479.00;;;;110599;1253;41308;-66
2022/08/31 03:30:00;;;;;;;7.60;3.00;;;;;18.50;97480.00;;;;110714;1250;41164;-66
2022/08/31 03:32:32;;;;;;;6.60;2.70;;;;;18.50;97481.80;;;;110636;1252;41241;-68
2022/08/31 03:35:03;;;;;;;7.60;3.50;;;;;18.50;97483.80;;;;110605;1251;41385;-67
2022/08/31 03:37:33;;;;;;;8.10;3.50;;;;;18.50;97483.20;;;;110952;1252;41272;-67
2022/08/31 03:40:03;;;;;;;8.60;3.10;;;;;18.50;97484.40;;;;110710;1251;41143;-66
2022/08/31 03:42:33;;;;;;;7.20;3.20;;;;;18.50;97482.80;;;;110686;1251;41164;-67
2022/08/31 03:45:04;;;;;;;6.90;3.10;;;;;18.50;97489.20;;;;110566;1253;41505;-66
2022/08/31 03:47:35;;;;;;;7.00;2.70;;;;;18.50;97486.80;;;;110616;1252;41153;-66
2022/08/31 03:50:14;;;;;;;6.70;2.70;;;;;18.50;97489.00;;;;110681;1251;41158;-66
2022/08/31 03:52:54;;;;;;;6.60;3.00;;;;;18.50;97490.80;;;;110759;1251;41571;-66
2022/08/31 03:55:24;;;;;;;7.60;3.20;;;;;18.50;97490.80;;;;110559;1252;41143;-67
2022/08/31 03:57:54;;;;;;;6.10;2.70;;;;;18.48;97491.60;;;;110694;1252;41958;-66
2022/08/31 04:00:24;;;;;;;6.50;2.80;;;;;18.46;97492.60;;;;110815;1252;41311;-66
2022/08/31 04:02:58;;;;;;;7.00;3.00;;;;;18.48;97488.20;;;;110708;1250;41262;-66
2022/08/31 04:05:36;;;;;;;7.60;3.30;;;;;18.50;97489.00;;;;110528;1252;41269;-66
2022/08/31 04:08:15;;;;;;;8.80;3.30;;;;;18.50;97492.20;;;;110466;1251;41939;-67
2022/08/31 04:11:11;;;;;;;8.80;3.60;;;;;18.50;97493.00;;;;110668;1251;41391;-66
2022/08/31 04:14:00;;;;;;;9.00;3.70;;;;;18.50;97495.40;;;;110489;1253;41251;-67
2022/08/31 04:16:40;;;;;;;8.20;3.40;;;;;18.50;97492.60;;;;110711;1251;41284;-66
2022/08/31 04:19:40;;;;;;;7.60;3.60;;;;;18.50;97489.80;;;;110631;1249;41264;-66
2022/08/31 04:22:19;;;;;;;9.70;4.40;;;;;18.50;97490.20;;;;110727;1252;41257;-66
2022/08/31 04:25:16;;;;;;;9.90;4.90;;;;;18.50;97493.80;;;;110822;1250;41250;-68
2022/08/31 04:27:46;;;;;;;12.50;5.40;;;;;18.44;97494.80;;;;110715;1251;42194;-72
2022/08/31 04:30:15;;;;;;;10.10;4.50;;;;;18.40;97492.40;;;;110638;1250;41798;-68
2022/08/31 04:32:44;;;;;;;9.20;4.20;;;;;18.40;97494.20;;;;110701;1252;41164;-69
2022/08/31 04:35:14;;;;;;;9.40;4.70;;;;;18.40;97494.60;;;;110778;1251;41166;-69
2022/08/31 04:37:42;;;;;;;8.30;3.80;;;;;18.30;97489.00;;;;110757;1249;40862;-70
2022/08/31 04:40:18;;;;;;;8.60;3.80;;;;;18.40;97488.40;;;;110682;1251;42142;-70
2022/08/31 04:42:47;;;;;;;9.60;4.20;;;;;18.42;97494.00;;;;110568;1252;41157;-70
2022/08/31 04:45:17;;;;;;;8.00;3.70;;;;;18.40;97499.60;;;;110725;1252;41215;-70
2022/08/31 04:47:46;;;;;;;7.20;3.50;;;;;18.50;97498.40;;;;110814;1252;41350;-71
2022/08/31 04:50:16;;;;;;;8.10;3.70;;;;;18.50;97500.00;;;;110938;1251;41508;-71
2022/08/31 04:53:03;;;;;;;7.90;3.60;;;;;18.60;97499.60;;;;110793;1251;42005;-71
2022/08/31 04:55:32;;;;;;;9.20;3.20;;;;;18.62;97492.80;;;;109611;1249;1525781;-70
2022/08/31 04:58:01;;;;;;;12.80;4.60;;;;;18.70;97490.80;;;;110654;1251;42250;-71
2022/08/31 05:00:30;;;;;;;9.40;3.90;;;;;18.76;97491.20;;;;110550;1252;41157;-70
2022/08/31 05:03:14;;;;;;;8.50;3.10;;;;;18.80;97489.80;;;;110778;1251;41177;-71
2022/08/31 05:05:45;;;;;;;9.00;3.60;;;;;18.90;97483.80;;;;110646;1252;41959;-70
2022/08/31 05:08:14;;;;;;;7.30;3.20;;;;;18.90;97484.40;;;;110607;1251;41135;-69
2022/08/31 05:10:45;;;;;;;7.50;3.50;;;;;19.00;97487.40;;;;110887;1249;41142;-70
2022/08/31 05:13:14;;;;;;;7.20;3.20;;;;;19.00;97485.40;;;;110522;1251;41875;-70
2022/08/31 05:15:43;;;;;;;10.80;3.70;;;;;19.08;97486.40;;;;110620;1249;41256;-69
2022/08/31 05:18:17;;;;;;;8.60;3.60;;;;;19.10;97485.00;;;;110622;1250;41795;-70
2022/08/31 05:20:52;;;;;;;10.90;4.10;;;;;19.20;97486.40;;;;110665;1250;41154;-69
2022/08/31 05:23:21;;;;;;;7.90;3.40;;;;;19.20;97493.40;;;;110750;1249;42219;-70
2022/08/31 05:25:50;;;;;;;10.90;5.40;;;;;19.28;97497.20;;;;110773;1251;41452;-70
2022/08/31 05:28:22;;;;;;;9.90;5.00;;;;;19.30;97495.20;;;;110875;1249;41815;-70
2022/08/31 05:30:51;;;;;;;8.80;3.80;;;;;19.20;97492.00;;;;110621;1250;41162;-70
2022/08/31 05:33:42;;;;;;;7.00;3.00;;;;;19.24;97490.40;;;;110839;1251;41260;-69
2022/08/31 05:36:12;;;;;;;8.40;3.40;;;;;19.30;97491.00;;;;110865;1250;41151;-69
2022/08/31 05:38:41;;;;;;;7.60;3.10;;;;;19.36;97493.80;;;;110689;1251;41601;-70
2022/08/31 05:41:12;;;;;;;;;;;;;19.40;97487.80;;;;110714;1251;42388;-70
2022/08/31 05:43:41;;;;;;;7.10;3.10;;;;;19.50;97491.00;;;;110566;1251;42407;-70
2022/08/31 05:46:12;;;;;;;9.80;5.20;;;;;19.50;97489.40;;;;110618;1250;41162;-70
2022/08/31 05:48:41;;;;;;;10.70;5.30;;;;;19.56;97492.40;;;;110618;1249;41311;-70
2022/08/31 05:51:14;;;;;;;12.00;5.60;;;;;19.60;97494.20;;;;110619;1250;41261;-70
2022/08/31 05:53:43;;;;;;;11.00;5.80;;;;;19.50;97492.80;;;;110694;1250;42274;-70
2022/08/31 05:56:15;;;;;;;12.30;4.90;;;;;19.50;97491.60;;;;110605;1251;41209;-70
2022/08/31 05:58:48;;;;;;;9.50;4.60;;;;;19.50;97481.80;;;;110583;1252;41899;-70
2022/08/31 06:01:22;;;;;;;8.50;4.40;;;;;19.50;97482.20;;;;110650;1252;41881;-70
2022/08/31 06:04:27;;;;;;;9.80;4.00;;;;;19.60;97476.80;;;;110748;1251;41196;-70
2022/08/31 06:06:56;;;;;;;9.00;4.10;;;;;19.60;97475.40;;;;110687;1249;41136;-70
2022/08/31 06:09:30;;;;;;;7.10;3.30;;;;;19.70;97470.60;;;;110678;1251;41134;-70
2022/08/31 06:11:59;;;;;;;8.00;3.60;;;;;19.80;97470.80;;;;110600;1250;41148;-70
2022/08/31 06:14:28;;;;;;;9.30;3.80;;;;;19.90;97477.40;;;;110690;1251;41397;-70
2022/08/31 06:16:58;;;;;;;7.60;3.20;;;;;19.90;97480.20;;;;110685;1251;41798;-70
2022/08/31 06:19:28;;;;;;;10.10;3.80;;;;;20.00;97479.80;;;;110641;1252;41255;-70
2022/08/31 06:21:57;;;;;;;8.20;3.60;;;;;20.10;97484.40;;;;110662;1250;42144;-70
2022/08/31 06:24:27;;;;;;;11.70;3.90;;;;;20.20;97483.40;;;;110853;1251;41556;-70
2022/08/31 06:26:57;;;;;;;7.80;3.40;;;;;20.30;97479.40;;;;110655;1251;41152;-70
2022/08/31 06:29:34;;;;;;;9.00;3.50;;;;;20.38;97482.80;;;;110619;1249;41263;-70
2022/08/31 06:32:06;;;;;;;8.10;3.80;;;;;20.42;97487.00;;;;110695;1249;41259;-72
2022/08/31 06:34:41;;;;;;;8.30;3.90;;;;;20.40;97490.60;;;;110895;1251;41759;-71
2022/08/31 06:37:22;;;;;;;7.20;3.30;;;;;20.40;97490.20;;;;110796;1251;41182;-71
2022/08/31 06:40:04;;;;;;;7.20;3.30;;;;;20.40;97491.40;;;;110761;1251;42489;-70
2022/08/31 06:43:08;;;;;;;7.40;3.30;;;;;20.50;97490.40;;;;110301;1254;41191;-71
2022/08/31 06:46:06;;;;;;;7.20;3.10;;;;;20.60;97493.00;;;;110579;1251;41178;-71
2022/08/31 06:49:05;;;;;;;8.10;3.10;;;;;20.60;97498.60;;;;110557;1251;41213;-71
2022/08/31 06:51:36;;;;;;;8.90;3.40;;;;;20.58;97499.00;;;;110634;1251;42383;-70
2022/08/31 06:54:07;;;;;;;10.70;4.40;;;;;20.60;97497.60;;;;110678;1249;42764;-70
2022/08/31 06:57:14;;;;;;;8.70;3.90;;;;;20.70;97495.80;;;;110680;1249;41161;-70
2022/08/31 07:00:04;;;;;;;9.00;4.00;;;;;20.70;97496.60;;;;110781;1251;41155;-70
2022/08/31 07:02:51;;;;;;;9.40;4.10;;;;;20.70;97495.00;;;;110839;1251;41871;-70
2022/08/31 07:05:20;;;;;;;13.00;5.70;;;;;20.76;97495.00;;;;110774;1251;41181;-70
2022/08/31 07:07:53;;;;;;;9.60;4.00;;;;;20.80;97495.60;;;;110838;1251;41662;-71
2022/08/31 07:10:22;;;;;;;7.00;3.30;;;;;20.90;97499.00;;;;110776;1252;41603;-69
2022/08/31 07:12:50;;;;;;;8.00;3.20;;;;;21.08;97499.80;;;;110658;1252;41143;-70
2022/08/31 07:15:19;;;;;;;8.10;3.50;;;;;21.28;97503.60;;;;110587;1252;41725;-70
2022/08/31 07:17:50;;;;;;;9.10;3.80;;;;;21.46;97503.20;;;;110791;1250;41166;-69
2022/08/31 07:20:20;;;;;;;7.80;3.10;;;;;21.70;97505.60;;;;110684;1252;41154;-71
2022/08/31 07:22:49;;;;;;;6.10;2.70;;;;;22.00;97501.60;;;;110552;1252;41197;-70
2022/08/31 07:25:38;;;;;;;7.60;3.40;;;;;22.50;97497.80;;;;110820;1250;42379;-70
2022/08/31 07:28:09;;;;;;;7.90;3.60;;;;;23.00;97492.00;;;;110719;1252;41623;-70
2022/08/31 07:30:40;;;;;;;7.70;3.30;;;;;23.76;97485.80;;;;110705;1252;41147;-70
2022/08/31 07:33:13;;;;;;;7.90;2.80;;;;;24.84;97480.20;;;;110669;1252;41423;-70
2022/08/31 07:35:47;;;;;;;8.20;3.70;;;;;26.02;97477.20;;;;110779;1252;41307;-71
2022/08/31 07:44:01;;;;;;;7.30;3.00;;;;;27.10;97468.20;;;;110592;1251;41249;-70
2022/08/31 07:46:30;;;;;;;7.60;2.90;;;;;27.50;97471.60;;;;110701;1252;42071;-70
2022/08/31 07:49:01;;;;;;;5.70;2.50;;;;;27.60;97470.60;;;;110782;1252;41950;-70
2022/08/31 07:51:50;;;;;;;6.20;2.60;;;;;27.92;97468.40;;;;110674;1251;41798;-70
2022/08/31 07:54:45;;;;;;;5.70;2.40;;;;;28.10;97474.00;;;;110479;1252;41169;-71
2022/08/31 07:57:30;;;;;;;7.50;3.00;;;;;28.00;97469.20;;;;110591;1251;41383;-71
2022/08/31 08:00:03;;;;;;;6.60;2.50;;;;;27.92;97464.20;;;;110824;1251;41933;-70
2022/08/31 08:02:44;;;;;;;7.30;2.80;;;;;28.04;97469.60;;;;110545;1253;41271;-70
2022/08/31 08:05:25;;;;;;;7.40;2.90;;;;;28.28;97471.40;;;;110589;1252;41733;-70
2022/08/31 08:08:13;;;;;;;5.40;2.30;;;;;28.26;97470.00;;;;110545;1252;41124;-70
2022/08/31 08:11:03;;;;;;;6.00;2.60;;;;;29.10;97470.60;;;;110706;1252;41265;-71
2022/08/31 08:13:45;;;;;;;5.50;2.30;;;;;30.20;97469.60;;;;110633;1252;41949;-70
2022/08/31 08:16:19;;;;;;;6.60;2.40;;;;;31.26;97471.80;;;;110531;1254;41164;-71
2022/08/31 08:19:15;;;;;;;7.40;2.70;;;;;31.90;97457.80;;;;110923;1249;41492;-71
2022/08/31 08:21:45;;;;;;;8.00;2.30;;;;;31.60;97457.60;;;;110645;1252;41947;-70
2022/08/31 08:24:20;;;;;;;6.70;2.50;;;;;31.22;97466.80;;;;110625;1251;41386;-70
2022/08/31 08:27:01;;;;;;;6.10;2.30;;;;;31.54;97457.20;;;;110684;1251;41579;-69
2022/08/31 08:29:49;;;;;;;7.30;2.50;;;;;32.64;97458.80;;;;110681;1251;41155;-72
2022/08/31 08:32:24;;;;;;;9.80;3.10;;;;;33.48;97459.60;;;;110615;1251;41488;-68
2022/08/31 08:34:53;;;;;;;6.90;2.30;;;;;33.36;97450.20;;;;110684;1252;41267;-71
2022/08/31 08:37:22;;;;;;;7.60;2.30;;;;;33.28;97451.00;;;;110770;1251;41168;-71
2022/08/31 08:40:29;;;;;;;5.10;2.20;;;;;33.52;97449.80;;;;110692;1251;41147;-71
2022/08/31 08:42:58;;;;;;;8.30;2.30;;;;;34.02;97452.60;;;;110587;1252;41161;-71
2022/08/31 08:45:27;;;;;;;7.60;2.10;;;;;34.50;97447.80;;;;110623;1252;42845;-71
2022/08/31 08:47:57;;;;;;;4.80;2.10;;;;;34.10;97445.60;;;;110786;1251;41268;-70
2022/08/31 08:50:28;;;;;;;4.50;1.90;;;;;34.70;97438.80;;;;110578;1253;41274;-69
2022/08/31 08:53:02;;;;;;;4.50;1.90;;;;;35.20;97441.00;;;;110703;1251;41157;-71
2022/08/31 08:55:35;;;;;;;6.30;2.30;;;;;34.98;97445.20;;;;110655;1252;41154;-71
2022/08/31 08:58:06;;;;;;;4.60;2.20;;;;;34.28;97446.60;;;;110685;1251;41254;-71
2022/08/31 09:00:45;;;;;;;6.10;2.00;;;;;33.78;97441.80;;;;110623;1249;41258;-71
2022/08/31 09:03:43;;;;;;;5.40;2.20;;;;;34.80;97441.40;;;;110761;1250;41587;-71
2022/08/31 09:06:37;;;;;;;6.10;2.30;;;;;34.28;97437.80;;;;110718;1250;41466;-71
2022/08/31 09:09:46;;;;;;;6.30;2.00;;;;;32.50;97451.80;;;;110464;1251;41340;-70
2022/08/31 09:12:25;;;;;;;8.70;2.80;;;;;32.52;97441.80;;;;110635;1251;41904;-70
2022/08/31 09:15:14;;;;;;;7.40;2.80;;;;;32.40;97457.20;;;;110579;1251;42432;-71
2022/08/31 09:17:48;;;;;;;;;;;;;31.24;97458.40;;;;110624;1252;41158;-70
2022/08/31 09:20:17;;;;;;;6.70;2.80;;;;;30.62;97456.20;;;;110622;1252;41632;-70
2022/08/31 09:22:54;;;;;;;8.20;3.20;;;;;30.32;97463.80;;;;110706;1251;41157;-70
2022/08/31 09:25:37;;;;;;;7.20;2.70;;;;;29.64;97457.60;;;;110766;1252;41311;-71
2022/08/31 09:28:45;;;;;;;8.40;2.80;;;;;30.12;97450.00;;;;110812;1251;41621;-71
2022/08/31 09:31:33;;;;;;;7.20;2.70;;;;;30.42;97456.80;;;;110683;1250;41313;-71
2022/08/31 09:34:23;;;;;;;9.50;2.40;;;;;31.26;97444.00;;;;110632;1249;41729;-71
2022/08/31 09:36:54;;;;;;;5.70;2.50;;;;;31.44;97436.80;;;;110784;1251;41488;-72
2022/08/31 09:39:29;;;;;;;9.00;3.00;;;;;31.96;97434.60;;;;110895;1251;41596;-72
2022/08/31 09:42:02;;;;;;;7.50;2.60;;;;;32.42;97428.60;;;;110908;1251;41721;-72
2022/08/31 09:44:34;;;;;;;7.50;2.80;;;;;33.00;97429.60;;;;110689;1251;41150;-71
2022/08/31 09:47:05;;;;;;;7.60;2.70;;;;;33.60;97430.20;;;;110855;1250;41271;-71
2022/08/31 09:49:37;;;;;;;5.30;2.20;;;;;33.00;97424.80;;;;110636;1250;41261;-71
2022/08/31 09:55:24;;;;;;;7.40;2.90;;;;;32.54;97426.00;;;;110825;1251;41242;-71
2022/08/31 09:57:54;;;;;;;6.80;2.60;;;;;32.70;97413.80;;;;110822;1250;42090;-72
2022/08/31 10:00:46;;;;;;;6.80;2.40;;;;;31.70;97417.20;;;;110751;1251;41641;-71
2022/08/31 10:03:19;;;;;;;6.10;2.20;;;;;31.42;97413.80;;;;110760;1251;41630;-71
2022/08/31 10:05:50;;;;;;;7.40;2.90;;;;;31.46;97403.60;;;;110686;1250;41262;-72
2022/08/31 10:08:56;;;;;;;7.30;2.90;;;;;31.24;97410.60;;;;110697;1250;41313;-71
2022/08/31 10:11:29;;;;;;;5.50;2.20;;;;;30.62;97407.20;;;;110656;1250;41326;-71
2022/08/31 10:14:04;;;;;;;6.90;2.80;;;;;30.92;97397.60;;;;110675;1251;41272;-71
2022/08/31 10:17:01;;;;;;;6.10;2.50;;;;;31.80;97394.60;;;;110816;1249;42914;-70
2022/08/31 10:20:04;;;;;;;6.90;2.40;;;;;31.12;97394.80;;;;110723;1251;41200;-72
2022/08/31 10:22:47;;;;;;;6.70;2.60;;;;;32.08;97384.20;;;;110701;1250;41261;-72
2022/08/31 10:25:51;;;;;;;5.30;2.30;;;;;32.88;97380.40;;;;110817;1250;41152;-72
2022/08/31 10:28:27;;;;;;;6.50;2.60;;;;;33.30;97377.00;;;;110650;1251;41127;-72
2022/08/31 10:31:02;;;;;;;6.80;2.40;;;;;33.60;97378.20;;;;110758;1250;41143;-71
2022/08/31 10:36:31;;;;;;;7.30;2.60;;;;;34.00;97375.80;;;;110814;1250;42401;-71
2022/08/31 10:39:35;;;;;;;8.50;2.50;;;;;34.00;97372.00;;;;110800;1251;41669;-72
2022/08/31 10:42:08;;;;;;;5.20;2.00;;;;;34.14;97365.00;;;;110553;1251;41148;-71
2022/08/31 10:45:02;;;;;;;6.90;2.20;;;;;34.20;97363.60;;;;110804;1250;41394;-71
2022/08/31 10:47:40;;;;;;;5.10;2.00;;;;;34.00;97361.20;;;;110606;1251;41161;-71
2022/08/31 10:50:10;;;;;;;4.90;1.90;;;;;34.30;97363.60;;;;110741;1251;41266;-72
2022/08/31 10:52:48;;;;;;;;;;;;;34.78;97357.40;;;;110619;1251;41150;-72
2022/08/31 10:55:47;;;;;;;5.30;2.20;;;;;34.82;97365.80;;;;110677;1250;41163;-72
2022/08/31 10:58:24;;;;;;;5.90;2.40;;;;;33.98;97360.20;;;;110718;1251;41268;-72
2022/08/31 11:01:07;;;;;;;4.60;2.00;;;;;33.90;97365.60;;;;110571;1251;41274;-72
2022/08/31 11:03:49;;;;;;;5.00;2.00;;;;;32.82;97372.40;;;;110709;1250;42478;-72
2022/08/31 11:06:37;;;;;;;5.20;1.90;;;;;32.42;97368.60;;;;110694;1250;41575;-71
2022/08/31 11:09:13;;;;;;;3.20;1.70;;;;;32.40;97356.20;;;;110728;1251;41248;-71
2022/08/31 11:11:56;;;;;;;5.70;2.10;;;;;32.90;97353.80;;;;110849;1250;43070;-71
2022/08/31 11:14:52;;;;;;;5.20;2.10;;;;;32.58;97347.40;;;;110731;1251;41149;-71
2022/08/31 11:17:27;;;;;;;5.60;2.20;;;;;33.12;97341.80;;;;110755;1250;41270;-72
2022/08/31 11:20:22;;;;;;;7.30;2.50;;;;;33.68;97333.20;;;;110915;1251;41618;-72
2022/08/31 11:23:19;;;;;;;4.20;1.90;;;;;33.32;97341.00;;;;110753;1251;41445;-72
2022/08/31 11:26:06;;;;;;;7.40;2.40;;;;;33.86;97344.80;;;;110772;1251;41581;-72
2022/08/31 11:28:59;;;;;;;6.80;2.00;;;;;34.32;97335.60;;;;110618;1251;41255;-72
2022/08/31 11:31:31;;;;;;;3.50;1.80;;;;;34.74;97333.40;;;;110733;1249;41171;-72
2022/08/31 11:34:13;;;;;;;8.30;2.40;;;;;35.78;97329.00;;;;110632;1251;41710;-73
2022/08/31 11:37:03;;;;;;;5.20;1.80;;;;;36.76;97323.40;;;;110775;1249;41867;-73
2022/08/31 11:39:40;;;;;;;5.50;2.00;;;;;35.16;97321.00;;;;110593;1251;41155;-73
2022/08/31 11:42:26;;;;;;;4.50;1.90;;;;;34.34;97320.00;;;;110803;1250;41601;-72
2022/08/31 11:45:00;;;;;;;5.50;2.50;;;;;34.10;97326.40;;;;110712;1250;41362;-72
2022/08/31 11:47:29;;;;;;;6.80;2.30;;;;;33.54;97324.00;;;;110727;1251;41134;-72
2022/08/31 11:50:09;;;;;;;5.50;1.90;;;;;32.88;97331.80;;;;110592;1251;41166;-71
2022/08/31 11:52:52;;;;;;;6.00;2.50;;;;;32.74;97326.00;;;;110924;1251;41330;-72
2022/08/31 11:55:46;;;;;;;4.70;2.10;;;;;32.90;97311.60;;;;110977;1250;41153;-72
2022/08/31 11:58:18;;;;;;;6.00;2.10;;;;;33.44;97309.60;;;;110963;1248;41941;-72
2022/08/31 12:00:54;;;;;;;6.20;2.10;;;;;33.42;97321.40;;;;110748;1251;41166;-73
2022/08/31 12:03:42;;;;;;;3.90;1.80;;;;;33.44;97321.20;;;;110554;1250;42000;-72
2022/08/31 12:06:32;;;;;;;7.00;2.00;;;;;33.54;97319.40;;;;110666;1251;41271;-72
2022/08/31 12:09:08;;;;;;;5.70;2.30;;;;;33.82;97312.40;;;;110964;1249;41152;-72
2022/08/31 12:12:06;;;;;;;5.50;2.20;;;;;33.78;97314.80;;;;110846;1251;41115;-73
2022/08/31 12:14:46;;;;;;;5.50;2.40;;;;;33.18;97316.20;;;;110842;1251;42064;-73
2022/08/31 12:17:43;;;;;;;3.90;1.80;;;;;32.66;97319.40;;;;110743;1251;41247;-73
2022/08/31 12:20:24;;;;;;;5.30;2.10;;;;;32.30;97329.40;;;;110735;1251;41872;-73
2022/08/31 12:23:34;;;;;;;5.70;2.60;;;;;31.98;97332.60;;;;110763;1250;41267;-71
2022/08/31 12:26:39;;;;;;;6.50;2.50;;;;;31.10;97343.20;;;;110485;1251;41151;-72
2022/08/31 12:29:27;;;;;;;;;;;;;30.20;97341.60;;;;110936;1250;41729;-72
2022/08/31 12:32:10;;;;;;;6.20;2.50;;;;;29.48;97344.00;;;;110999;1248;41534;-72
2022/08/31 12:35:17;;;;;;;6.40;2.40;;;;;28.90;97338.60;;;;110998;1248;41148;-72
2022/08/31 12:37:58;;;;;;;5.80;2.40;;;;;28.38;97343.80;;;;110704;1251;41161;-71
2022/08/31 12:40:32;;;;;;;8.90;2.50;;;;;27.74;97350.80;;;;110680;1250;41920;-72
2022/08/31 12:43:01;;;;;;;7.80;2.80;;;;;27.14;97357.00;;;;110791;1251;41146;-72
2022/08/31 12:45:53;;;;;;;8.30;2.80;;;;;26.60;97354.80;;;;111041;1249;41278;-71
2022/08/31 12:48:50;;;;;;;9.60;2.80;;;;;26.10;97350.80;;;;110706;1251;41252;-71
2022/08/31 12:51:39;;;;;;;6.80;2.80;;;;;25.60;97350.60;;;;110590;1252;41913;-71
2022/08/31 12:54:35;;;;;;;6.80;2.40;;;;;25.20;97354.00;;;;110698;1250;41502;-72
2022/08/31 12:57:18;;;;;;;6.40;2.50;;;;;25.00;97359.00;;;;110689;1250;41152;-71
2022/08/31 13:00:14;;;;;;;9.00;3.00;;;;;24.90;97365.20;;;;110641;1250;42354;-71
2022/08/31 13:02:43;;;;;;;;;;;;;24.80;97372.20;;;;110676;1249;41357;-71
2022/08/31 13:05:29;;;;;;;10.80;3.40;;;;;24.42;97371.60;;;;110678;1249;41827;-71
2022/08/31 13:07:58;;;;;;;7.90;3.40;;;;;24.28;97368.20;;;;110614;1250;41137;-70
2022/08/31 13:10:35;;;;;;;10.30;4.00;;;;;24.10;97370.60;;;;110725;1251;41743;-71
2022/08/31 13:13:07;;;;;;;7.60;3.50;;;;;23.90;97373.20;;;;110761;1250;41147;-71
2022/08/31 13:15:39;;;;;;;9.10;3.40;;;;;23.70;97375.20;;;;110898;1250;41382;-71